createdAt,value
2023-03-29T00:00:14.799Z,-2.43
2023-03-29T00:05:22.920Z,-2.46
2023-03-29T00:10:24.990Z,-2.52
2023-03-29T00:15:27.872Z,-2.58
2023-03-29T00:20:38.774Z,-2.63
2023-03-29T00:25:49.994Z,-2.66
2023-03-29T00:30:54.491Z,-2.67
2023-03-29T00:35:56.504Z,-2.64
2023-03-29T00:41:01.820Z,-2.67
2023-03-29T00:46:04.517Z,-2.74
2023-03-29T00:51:11.052Z,-2.74
2023-03-29T00:56:27.735Z,-2.74
2023-03-29T01:02:07.278Z,-2.77
2023-03-29T01:07:54.938Z,-2.81
2023-03-29T01:13:11.900Z,-2.85
2023-03-29T01:18:16.922Z,-2.88
2023-03-29T01:23:34.687Z,-2.91
2023-03-29T01:28:55.643Z,-2.97
2023-03-29T01:34:11.636Z,-2.97
2023-03-29T01:39:19.043Z,-3.00
2023-03-29T01:44:40.591Z,-3.03
2023-03-29T01:49:59.826Z,-3.04
2023-03-29T01:55:25.013Z,-3.08
2023-03-29T02:00:29.760Z,-3.10
2023-03-29T02:05:35.921Z,-3.12
2023-03-29T02:10:38.396Z,-3.13
2023-03-29T02:15:40.851Z,-3.17
2023-03-29T02:20:47.386Z,-3.21
2023-03-29T02:25:53.606Z,-3.20
2023-03-29T02:31:14.814Z,-3.23
2023-03-29T02:36:20.134Z,-3.26
2023-03-29T02:41:24.690Z,-3.28
2023-03-29T02:46:31.002Z,-3.31
2023-03-29T02:51:34.993Z,-3.35
2023-03-29T02:56:50.309Z,-3.37
2023-03-29T03:01:53.716Z,-3.39
2023-03-29T03:06:56.948Z,-3.44
2023-03-29T03:12:00.331Z,-3.45
2023-03-29T03:17:05.179Z,-3.48
2023-03-29T03:22:09.928Z,-3.44
2023-03-29T03:27:14.708Z,-3.40
2023-03-29T03:32:17.613Z,-3.42
2023-03-29T03:37:40.960Z,-3.42
2023-03-29T03:42:44.044Z,-3.44
2023-03-29T03:47:46.730Z,-3.45
2023-03-29T03:53:02.622Z,-3.44
2023-03-29T03:58:18.051Z,-3.44
2023-03-29T04:03:24.135Z,-3.45
2023-03-29T04:08:35.357Z,-3.48
2023-03-29T04:13:48.279Z,-3.51
2023-03-29T04:19:13.946Z,-3.52
2023-03-29T04:24:23.977Z,-3.51
2023-03-29T04:29:46.845Z,-3.50
2023-03-29T04:34:58.140Z,-3.49
2023-03-29T04:40:00.460Z,-3.48
2023-03-29T04:45:07.151Z,-3.44
2023-03-29T04:50:25.888Z,-3.39
2023-03-29T04:55:28.269Z,-3.36
2023-03-29T05:00:38.065Z,-3.33
2023-03-29T05:06:10.632Z,-3.22
2023-03-29T05:11:14.323Z,-3.08
2023-03-29T05:16:30.258Z,-2.95
2023-03-29T05:21:34.441Z,-2.80
2023-03-29T05:26:40.577Z,-2.63
2023-03-29T05:31:43.089Z,-2.46
2023-03-29T05:36:46.379Z,-2.29
2023-03-29T05:41:49.455Z,-2.17
2023-03-29T05:47:15.556Z,-1.92
2023-03-29T05:52:18.602Z,-1.78
2023-03-29T05:57:21.082Z,-1.57
2023-03-29T06:02:26.223Z,-1.44
2023-03-29T06:07:29.956Z,-1.26
2023-03-29T06:13:01.991Z,-1.03
2023-03-29T06:18:07.740Z,-0.82
2023-03-29T06:23:10.729Z,-0.56
2023-03-29T06:28:15.674Z,-0.33
2023-03-29T06:33:18.882Z,-0.09
2023-03-29T06:38:28.633Z,0.17
2023-03-29T06:43:33.320Z,0.36
2023-03-29T06:48:48.729Z,0.58
2023-03-29T06:53:54.857Z,0.82
2023-03-29T06:58:57.393Z,1.08
2023-03-29T07:04:09.451Z,1.24
2023-03-29T07:09:36.431Z,1.47
2023-03-29T07:15:02.262Z,1.66
2023-03-29T07:20:27.257Z,1.98
2023-03-29T07:25:50.497Z,2.29
2023-03-29T07:31:12.537Z,2.55
2023-03-29T07:36:34.502Z,2.72
2023-03-29T07:41:46.116Z,2.95
2023-03-29T07:46:51.254Z,3.29
2023-03-29T07:52:30.107Z,3.51
2023-03-29T07:57:44.200Z,3.76
2023-03-29T08:03:32.645Z,4.04
2023-03-29T08:09:17.371Z,4.22
2023-03-29T08:14:38.557Z,4.01
2023-03-29T08:20:18.337Z,3.89
2023-03-29T08:25:45.505Z,3.93
2023-03-29T08:31:14.752Z,4.05
2023-03-29T08:36:55.917Z,4.21
2023-03-29T08:42:30.922Z,4.33
2023-03-29T08:48:12.464Z,4.49
2023-03-29T08:53:33.791Z,4.75
2023-03-29T08:58:48.021Z,4.98
2023-03-29T09:04:31.802Z,5.11
2023-03-29T09:10:11.492Z,5.24
2023-03-29T09:16:25.559Z,5.38
2023-03-29T09:22:30.650Z,5.53
2023-03-29T09:27:45.597Z,5.65
2023-03-29T09:33:45.092Z,5.74
2023-03-29T09:39:02.428Z,5.79
2023-03-29T09:44:31.300Z,5.98
2023-03-29T09:50:05.255Z,6.08
2023-03-29T09:55:40.184Z,6.22
2023-03-29T10:01:15.560Z,6.36
2023-03-29T10:06:32.709Z,6.55
2023-03-29T10:12:04.770Z,6.78
2023-03-29T10:17:38.037Z,7.00
2023-03-29T10:23:03.897Z,7.21
2023-03-29T10:28:16.220Z,7.37
2023-03-29T10:34:01.455Z,7.57
2023-03-29T10:39:29.950Z,7.72
2023-03-29T10:44:47.334Z,7.70
2023-03-29T10:50:06.185Z,7.83
2023-03-29T10:55:18.737Z,8.17
2023-03-29T11:00:40.758Z,8.43
2023-03-29T11:06:46.202Z,8.42
2023-03-29T11:13:08.433Z,8.49
2023-03-29T11:19:26.385Z,8.69
2023-03-29T11:25:19.180Z,8.98
2023-03-29T11:31:18.379Z,9.13
2023-03-29T11:37:28.148Z,9.42
2023-03-29T11:43:01.398Z,9.84
2023-03-29T11:48:14.176Z,10.09
2023-03-29T11:54:02.871Z,10.33
2023-03-29T11:59:58.817Z,10.39
2023-03-29T12:06:05.090Z,10.33
2023-03-29T12:11:49.127Z,10.35
2023-03-29T12:17:05.525Z,10.56
2023-03-29T12:22:53.328Z,10.72
2023-03-29T12:28:26.635Z,10.81
2023-03-29T12:34:36.237Z,11.00
2023-03-29T12:40:52.006Z,11.26
2023-03-29T12:46:56.057Z,11.38
2023-03-29T12:52:36.812Z,11.35
2023-03-29T12:58:08.435Z,11.29
2023-03-29T13:03:57.464Z,11.33
2023-03-29T13:09:46.510Z,11.34
2023-03-29T13:15:36.819Z,11.34
2023-03-29T13:21:39.138Z,11.44
2023-03-29T13:27:13.903Z,11.50
2023-03-29T13:33:13.897Z,11.41
2023-03-29T13:38:25.983Z,11.24
2023-03-29T13:44:08.937Z,11.06
2023-03-29T13:49:34.405Z,10.86
2023-03-29T13:55:17.998Z,10.69
2023-03-29T14:00:37.139Z,10.64
2023-03-29T14:05:44.238Z,10.70
2023-03-29T14:10:50.119Z,10.88
2023-03-29T14:16:12.990Z,11.10
2023-03-29T14:21:15.050Z,11.21
2023-03-29T14:26:22.759Z,11.30
2023-03-29T14:31:52.299Z,11.23
2023-03-29T14:36:54.477Z,11.12
2023-03-29T14:41:57.201Z,11.00
2023-03-29T14:47:03.385Z,10.99
2023-03-29T14:52:14.843Z,10.94
2023-03-29T14:57:20.789Z,10.86
2023-03-29T15:02:36.105Z,10.81
2023-03-29T15:07:43.236Z,10.76
2023-03-29T15:12:46.653Z,10.63
2023-03-29T15:17:52.898Z,10.54
2023-03-29T15:23:17.804Z,10.47
2023-03-29T15:28:44.825Z,10.37
2023-03-29T15:34:24.182Z,10.33
2023-03-29T15:39:35.652Z,10.25
2023-03-29T15:44:41.302Z,10.23
2023-03-29T15:49:53.611Z,10.21
2023-03-29T15:55:00.611Z,10.09
2023-03-29T16:00:08.024Z,9.89
2023-03-29T16:05:14.823Z,9.65
2023-03-29T16:10:21.124Z,9.39
2023-03-29T16:15:33.847Z,9.12
2023-03-29T16:20:38.086Z,8.88
2023-03-29T16:26:05.035Z,8.71
2023-03-29T16:31:17.262Z,8.57
2023-03-29T16:36:24.617Z,8.43
2023-03-29T16:41:38.698Z,8.31
2023-03-29T16:46:46.209Z,8.20
2023-03-29T16:51:48.870Z,8.09
2023-03-29T16:56:53.474Z,8.00
2023-03-29T17:01:58.467Z,7.88
2023-03-29T17:07:05.552Z,7.79
2023-03-29T17:12:08.156Z,7.69
2023-03-29T17:17:11.170Z,7.60
2023-03-29T17:22:13.281Z,7.49
2023-03-29T17:27:15.957Z,7.36
2023-03-29T17:32:20.505Z,7.23
2023-03-29T17:37:29.950Z,7.13
2023-03-29T17:42:34.296Z,7.04
2023-03-29T17:47:43.306Z,6.96
2023-03-29T17:52:48.806Z,6.91
2023-03-29T17:57:51.793Z,6.80
2023-03-29T18:02:54.495Z,6.68
2023-03-29T18:07:57.347Z,6.55
2023-03-29T18:13:01.251Z,6.44
2023-03-29T18:18:04.404Z,6.34
2023-03-29T18:23:09.194Z,6.22
2023-03-29T18:28:14.579Z,6.12
2023-03-29T18:33:25.372Z,5.98
2023-03-29T18:38:27.410Z,5.87
2023-03-29T18:43:34.012Z,5.76
2023-03-29T18:48:42.341Z,5.70
2023-03-29T18:53:44.872Z,5.61
2023-03-29T18:58:48.248Z,5.52
2023-03-29T19:03:50.305Z,5.46
2023-03-29T19:08:58.279Z,5.41
2023-03-29T19:14:00.824Z,5.34
2023-03-29T19:19:04.976Z,5.25
2023-03-29T19:24:08.162Z,5.18
2023-03-29T19:29:13.090Z,5.12
2023-03-29T19:34:21.120Z,5.10
2023-03-29T19:39:25.006Z,5.16
2023-03-29T19:44:28.277Z,5.27
2023-03-29T19:49:31.039Z,5.35
2023-03-29T19:54:33.363Z,5.39
2023-03-29T19:59:39.087Z,5.42
2023-03-29T20:04:41.745Z,5.43
2023-03-29T20:09:45.507Z,5.45
2023-03-29T20:14:56.491Z,5.48
2023-03-29T20:19:59.027Z,5.53
2023-03-29T20:25:01.080Z,5.57
2023-03-29T20:30:04.737Z,5.58
2023-03-29T20:35:07.185Z,5.59
2023-03-29T20:40:11.232Z,5.61
2023-03-29T20:45:18.659Z,5.66
2023-03-29T20:50:26.697Z,5.70
2023-03-29T20:55:30.503Z,5.72
2023-03-29T21:00:38.387Z,5.76
2023-03-29T21:05:40.845Z,5.80
2023-03-29T21:10:51.691Z,5.82
2023-03-29T21:15:57.141Z,5.86
2023-03-29T21:21:04.994Z,5.88
2023-03-29T21:26:12.691Z,5.91
2023-03-29T21:31:17.597Z,5.94
2023-03-29T21:36:20.985Z,5.97
2023-03-29T21:41:27.082Z,5.99
2023-03-29T21:46:34.277Z,6.00
2023-03-29T21:51:46.769Z,6.00
2023-03-29T21:56:51.128Z,6.01
2023-03-29T22:01:53.558Z,6.00
2023-03-29T22:06:56.174Z,5.99
2023-03-29T22:11:59.934Z,5.98
2023-03-29T22:17:07.008Z,5.99
2023-03-29T22:22:26.485Z,5.98
2023-03-29T22:27:30.702Z,6.16
2023-03-29T22:32:35.859Z,6.53
2023-03-29T22:37:44.194Z,6.76
2023-03-29T22:42:49.398Z,6.89
2023-03-29T22:48:36.028Z,7.01
2023-03-29T22:53:39.079Z,7.13
2023-03-29T22:59:06.539Z,7.22
2023-03-29T23:04:38.847Z,7.27
2023-03-29T23:10:42.921Z,7.31
2023-03-29T23:16:34.025Z,7.34
2023-03-29T23:21:47.152Z,7.35
2023-03-29T23:27:29.511Z,7.29
2023-03-29T23:33:15.823Z,7.22
2023-03-29T23:38:44.949Z,7.18
2023-03-29T23:43:57.703Z,7.18
2023-03-29T23:49:51.453Z,7.20
2023-03-29T23:55:30.897Z,7.14
